Time;durP1;ratioP1;P1;durP2;ratioP2;P2;SDS_P1;SDS_P2;PMS_P1;PMS_P2;Temp;Humidity;BMP_temperature;BMP_pressure;BME280_temperature;BME280_humidity;BME280_pressure;Samples;Min_cycle;Max_cycle;Signal;HPM_P1;HPM_P2
2022/12/18 00:01:25;;;;;;;4.20;3.60;;;;;;;6.63;100.00;95185.09;5094409;28;20241;-56
2022/12/18 00:03:52;;;;;;;4.77;3.47;;;;;;;6.58;100.00;95184.56;5094212;28;20191;-53
2022/12/18 00:06:19;;;;;;;5.13;3.67;;;;;;;6.45;100.00;95198.84;5094401;28;20657;-55
2022/12/18 00:08:45;;;;;;;5.60;3.73;;;;;;;6.35;100.00;95188.47;5076137;28;20649;-55
2022/12/18 00:11:13;;;;;;;5.57;4.00;;;;;;;6.25;100.00;95189.09;5094687;28;20277;-56
2022/12/18 00:13:39;;;;;;;;;;;;;;;6.18;100.00;95201.28;5094659;28;20219;-55
2022/12/18 00:16:06;;;;;;;6.90;5.47;;;;;;;6.21;100.00;95198.59;5093211;28;20472;-55
2022/12/18 00:18:32;;;;;;;7.27;4.77;;;;;;;6.10;100.00;95205.16;5094302;28;20198;-53
2022/12/18 00:21:03;;;;;;;6.13;4.33;;;;;;;6.13;100.00;95202.44;5094292;28;20215;-52
2022/12/18 00:23:29;;;;;;;6.33;4.27;;;;;;;6.15;100.00;95221.66;5093912;28;20195;-53
2022/12/18 00:25:58;;;;;;;6.30;4.57;;;;;;;6.13;100.00;95207.50;5093979;28;20241;-55
2022/12/18 00:28:23;;;;;;;6.80;4.70;;;;;;;5.99;100.00;95205.78;5075792;28;20187;-54
2022/12/18 00:30:51;;;;;;;5.37;4.00;;;;;;;6.14;100.00;95209.94;5093749;28;20220;-55
2022/12/18 00:33:17;;;;;;;6.27;4.53;;;;;;;6.12;100.00;95226.88;5093855;28;20184;-54
2022/12/18 00:35:42;;;;;;;5.07;3.63;;;;;;;6.04;100.00;95229.03;5075471;28;20218;-55
2022/12/18 00:38:07;;;;;;;8.20;5.10;;;;;;;5.99;100.00;95220.94;5093752;28;20185;-53
2022/12/18 00:40:33;;;;;;;8.07;4.80;;;;;;;5.98;100.00;95223.53;5093998;28;20218;-54
2022/12/18 00:42:58;;;;;;;8.27;4.47;;;;;;;5.93;100.00;95219.56;5093693;28;20666;-54
2022/12/18 00:45:26;;;;;;;9.70;4.70;;;;;;;5.96;100.00;95226.13;5093677;28;20289;-56
2022/12/18 00:47:51;;;;;;;5.03;3.87;;;;;;;5.89;100.00;95228.22;5093723;28;20194;-53
2022/12/18 00:50:17;;;;;;;6.60;4.37;;;;;;;5.97;100.00;95232.81;5093625;28;20218;-54
2022/12/18 00:52:42;;;;;;;6.43;4.83;;;;;;;5.88;100.00;95234.16;5093661;28;20660;-55
2022/12/18 00:55:08;;;;;;;6.93;4.70;;;;;;;5.84;100.00;95241.97;5093769;28;20206;-54
2022/12/18 00:57:34;;;;;;;4.73;3.73;;;;;;;5.79;100.00;95241.41;5093345;28;20245;-54
2022/12/18 00:59:59;;;;;;;6.53;4.10;;;;;;;5.78;100.00;95249.84;5093589;28;20204;-55
2022/12/18 01:02:24;;;;;;;7.70;4.73;;;;;;;5.78;100.00;95243.09;5093426;28;20182;-55
2022/12/18 01:04:50;;;;;;;5.80;4.23;;;;;;;5.70;100.00;95226.78;5092325;28;20205;-52
2022/12/18 01:07:15;;;;;;;8.37;4.67;;;;;;;5.78;100.00;95239.78;5093494;28;20658;-55
2022/12/18 01:09:41;;;;;;;5.57;4.03;;;;;;;5.76;100.00;95249.13;5093405;28;20215;-55
2022/12/18 01:12:06;;;;;;;6.33;4.73;;;;;;;5.69;100.00;95253.72;5093489;28;20187;-54
2022/12/18 01:14:32;;;;;;;9.40;5.17;;;;;;;5.70;100.00;95252.00;5093283;28;20297;-54
2022/12/18 01:16:57;;;;;;;8.83;4.97;;;;;;;5.64;100.00;95255.69;5093172;28;20693;-55
2022/12/18 01:19:23;;;;;;;6.30;4.00;;;;;;;5.61;100.00;95250.00;5093181;28;20654;-52
2022/12/18 01:21:49;;;;;;;7.50;4.47;;;;;;;5.59;100.00;95251.81;5093043;28;20651;-55
2022/12/18 01:24:14;;;;;;;6.93;4.50;;;;;;;5.48;100.00;95251.56;5093085;28;20262;-53
2022/12/18 01:26:39;;;;;;;5.13;4.33;;;;;;;5.29;100.00;95254.31;5093095;28;20194;-55
2022/12/18 01:29:05;;;;;;;7.57;4.90;;;;;;;5.22;100.00;95250.50;5092812;28;20191;-55
2022/12/18 01:31:33;;;;;;;7.50;5.07;;;;;;;5.18;100.00;95255.78;5092926;28;20228;-55
2022/12/18 01:34:04;;;;;;;8.43;4.60;;;;;;;5.11;100.00;95256.09;5074601;28;20245;-52
2022/12/18 01:36:32;;;;;;;8.07;4.83;;;;;;;5.15;100.00;95261.00;5092973;28;20200;-53
2022/12/18 01:39:04;;;;;;;8.83;5.27;;;;;;;5.14;100.00;95260.16;5075136;28;20189;-53
2022/12/18 01:44:53;;;;;;;5.93;4.73;;;;;;;5.13;100.00;95262.78;5093113;28;20248;-53
2022/12/18 01:47:41;;;;;;;8.17;5.00;;;;;;;5.06;100.00;95264.81;5092789;28;20245;-54
2022/12/18 01:50:12;;;;;;;8.00;5.37;;;;;;;4.94;100.00;95268.81;5092789;28;20217;-53
2022/12/18 01:52:43;;;;;;;7.13;5.17;;;;;;;4.97;100.00;95258.53;5092669;28;20633;-54
2022/12/18 01:55:11;;;;;;;9.97;5.30;;;;;;;5.05;100.00;95260.66;5092552;28;20613;-55
2022/12/18 01:57:37;;;;;;;8.43;5.03;;;;;;;5.02;100.00;95281.81;5092666;28;20219;-52
2022/12/18 02:00:17;;;;;;;7.93;4.87;;;;;;;4.89;100.00;95272.44;5092684;28;20235;-52
2022/12/18 02:02:44;;;;;;;6.40;4.57;;;;;;;4.90;100.00;95277.41;5074376;28;20566;-55
2022/12/18 02:05:12;;;;;;;8.53;5.47;;;;;;;4.85;100.00;95284.38;5092607;28;20667;-54
2022/12/18 02:07:53;;;;;;;10.07;5.10;;;;;;;4.88;100.00;95280.91;5092571;28;20626;-52
2022/12/18 02:10:35;;;;;;;9.10;4.60;;;;;;;4.94;100.00;95283.09;5092409;28;20231;-54
2022/12/18 02:13:16;;;;;;;9.03;5.40;;;;;;;4.87;100.00;95299.41;5092116;28;20276;-53
2022/12/18 02:16:02;;;;;;;7.03;4.87;;;;;;;4.94;100.00;95301.53;5091936;28;20740;-55
2022/12/18 02:18:33;;;;;;;9.97;5.70;;;;;;;4.92;100.00;95295.78;5092431;28;20263;-56
2022/12/18 02:21:22;;;;;;;6.57;4.80;;;;;;;4.97;100.00;95306.41;5092101;28;20206;-52
2022/12/18 02:24:11;;;;;;;8.00;5.33;;;;;;;4.95;100.00;95304.84;5092117;28;20204;-55
2022/12/18 02:26:44;;;;;;;7.50;5.43;;;;;;;4.95;100.00;95298.13;5092133;28;20323;-54
2022/12/18 02:29:17;;;;;;;8.70;5.57;;;;;;;4.96;100.00;95307.31;5092141;28;20748;-55
2022/12/18 02:31:49;;;;;;;7.97;5.00;;;;;;;4.91;100.00;95305.91;5091992;28;20185;-52
2022/12/18 02:34:18;;;;;;;9.00;5.23;;;;;;;4.94;100.00;95309.09;5091899;28;20216;-55
2022/12/18 02:36:45;;;;;;;8.70;5.20;;;;;;;4.84;100.00;95313.00;5073706;28;20692;-55
2022/12/18 02:39:13;;;;;;;8.60;5.80;;;;;;;4.80;100.00;95309.00;5091858;28;20200;-54
2022/12/18 02:41:39;;;;;;;8.00;5.07;;;;;;;4.87;100.00;95307.78;5091780;28;20215;-53
2022/12/18 02:44:12;;;;;;;8.20;5.03;;;;;;;4.91;100.00;95316.81;5091823;28;20181;-53
2022/12/18 02:46:42;;;;;;;7.60;4.97;;;;;;;4.90;100.00;95330.31;5092232;28;20184;-52
2022/12/18 02:49:27;;;;;;;5.63;4.50;;;;;;;4.93;100.00;95315.03;5091726;28;20199;-54
2022/12/18 02:52:01;;;;;;;6.90;4.53;;;;;;;4.79;100.00;95314.94;5073526;28;20192;-56
2022/12/18 02:54:34;;;;;;;7.23;4.60;;;;;;;4.76;100.00;95326.88;5091788;28;20220;-54
2022/12/18 02:57:14;;;;;;;6.50;4.07;;;;;;;4.60;100.00;95310.91;5091600;28;20318;-53
2022/12/18 02:59:51;;;;;;;8.20;5.00;;;;;;;4.61;100.00;95310.84;5091683;28;20239;-52
2022/12/18 03:02:20;;;;;;;6.03;4.43;;;;;;;4.66;100.00;95315.66;5091427;28;20192;-55
2022/12/18 03:05:15;;;;;;;8.20;5.20;;;;;;;4.55;100.00;95320.41;5091372;28;20220;-53
2022/12/18 03:07:44;;;;;;;7.50;5.23;;;;;;;4.52;100.00;95307.97;5082185;28;20238;-52
2022/12/18 03:10:16;;;;;;;8.43;5.63;;;;;;;4.51;100.00;95324.78;5091638;28;20307;-53
2022/12/18 03:12:52;;;;;;;10.07;5.33;;;;;;;4.42;100.00;95322.75;5091421;28;20184;-53
2022/12/18 03:15:28;;;;;;;7.77;4.87;;;;;;;4.54;100.00;95331.38;5091800;28;20693;-52
2022/12/18 03:18:01;;;;;;;8.00;5.17;;;;;;;4.51;100.00;95339.88;5091459;28;20202;-53
2022/12/18 03:20:30;;;;;;;7.40;5.13;;;;;;;4.54;100.00;95346.47;5091435;28;20681;-55
2022/12/18 03:23:02;;;;;;;8.13;5.33;;;;;;;4.51;100.00;95339.88;5091345;28;20676;-55
2022/12/18 03:25:29;;;;;;;9.07;4.87;;;;;;;4.57;100.00;95351.34;5091213;28;20686;-53
2022/12/18 03:27:58;;;;;;;6.43;4.30;;;;;;;4.53;100.00;95345.66;5090397;28;20270;-55
2022/12/18 03:30:26;;;;;;;6.37;4.47;;;;;;;4.45;100.00;95357.00;5091432;28;20300;-53
2022/12/18 03:33:24;;;;;;;6.97;4.53;;;;;;;4.43;100.00;95364.63;5073007;28;20295;-53
2022/12/18 03:35:49;;;;;;;6.90;4.50;;;;;;;4.51;100.00;95362.53;5091275;28;20673;-53
2022/12/18 03:38:15;;;;;;;7.80;5.30;;;;;;;4.50;100.00;95373.50;5091026;28;21049;-53
2022/12/18 03:40:52;;;;;;;9.63;4.97;;;;;;;4.51;100.00;95382.69;5091349;28;20707;-53
2022/12/18 03:43:46;;;;;;;6.07;4.30;;;;;;;4.53;100.00;95388.44;5091057;28;20622;-53
2022/12/18 03:46:24;;;;;;;7.23;4.90;;;;;;;4.40;100.00;95377.38;5091019;28;20303;-52
2022/12/18 03:48:58;;;;;;;7.03;4.63;;;;;;;4.51;100.00;95399.47;5091157;28;20216;-53
2022/12/18 03:51:31;;;;;;;8.73;5.00;;;;;;;4.53;100.00;95412.81;5090928;28;20251;-54
2022/12/18 03:54:03;;;;;;;7.97;4.90;;;;;;;4.41;100.00;95419.25;5090926;28;20178;-55
2022/12/18 03:56:33;;;;;;;6.73;4.57;;;;;;;4.43;100.00;95421.69;5090912;28;20216;-57
2022/12/18 03:59:02;;;;;;;8.07;4.43;;;;;;;4.37;100.00;95415.25;5090633;28;20192;-52
2022/12/18 04:01:34;;;;;;;6.70;4.80;;;;;;;4.40;100.00;95405.06;5090783;28;20190;-54
2022/12/18 04:04:01;;;;;;;6.73;5.10;;;;;;;4.43;100.00;95401.56;5090708;28;20221;-55
2022/12/18 04:06:29;;;;;;;9.20;5.70;;;;;;;4.42;100.00;95399.94;5090638;28;20189;-55
2022/12/18 04:08:56;;;;;;;8.63;5.10;;;;;;;4.42;100.00;95410.00;5090549;28;20295;-53
2022/12/18 04:11:21;;;;;;;7.63;5.73;;;;;;;4.32;100.00;95401.28;5090698;28;20199;-52
2022/12/18 04:13:47;;;;;;;8.10;5.10;;;;;;;4.34;100.00;95400.31;5090622;28;20185;-56
2022/12/18 04:16:12;;;;;;;7.07;4.67;;;;;;;4.34;100.00;95422.97;5091063;28;20224;-53
2022/12/18 04:18:37;;;;;;;8.20;5.23;;;;;;;4.38;100.00;95416.91;5090670;28;20211;-54
2022/12/18 04:21:03;;;;;;;7.60;4.67;;;;;;;4.40;100.00;95431.91;5090818;28;20212;-54
2022/12/18 04:23:29;;;;;;;7.20;4.67;;;;;;;4.33;100.00;95431.41;5090501;28;20245;-52
2022/12/18 04:25:54;;;;;;;9.37;5.63;;;;;;;4.28;100.00;95437.53;5072396;28;20220;-55
2022/12/18 04:28:20;;;;;;;9.60;5.17;;;;;;;4.32;100.00;95444.88;5090508;28;20196;-54
2022/12/18 04:30:49;;;;;;;7.87;5.30;;;;;;;4.31;100.00;95438.19;5090324;28;20212;-54
2022/12/18 04:33:17;;;;;;;7.53;5.73;;;;;;;4.25;100.00;95453.59;5090471;28;20188;-53
2022/12/18 04:35:42;;;;;;;10.07;6.97;;;;;;;4.26;100.00;95456.03;5090251;28;20244;-51
2022/12/18 04:38:09;;;;;;;9.87;5.30;;;;;;;4.09;100.00;95448.47;5090682;28;20234;-54
2022/12/18 04:40:36;;;;;;;7.77;5.07;;;;;;;4.22;100.00;95448.72;5094197;28;20275;-52
2022/12/18 04:43:02;;;;;;;10.37;6.23;;;;;;;4.19;100.00;95469.81;5093800;28;20188;-54
2022/12/18 04:45:27;;;;;;;10.07;5.97;;;;;;;4.16;100.00;95462.38;5094119;28;20215;-54
2022/12/18 04:47:53;;;;;;;9.77;5.57;;;;;;;4.20;100.00;95468.09;5093874;28;20540;-53
2022/12/18 04:50:18;;;;;;;9.40;5.93;;;;;;;4.16;100.00;95487.53;5075528;28;20701;-52
2022/12/18 04:52:44;;;;;;;9.20;5.60;;;;;;;4.19;100.00;95474.84;5093767;28;20268;-52
2022/12/18 04:55:09;;;;;;;10.10;6.57;;;;;;;4.20;100.00;95499.09;5093714;28;20295;-55
2022/12/18 04:57:35;;;;;;;9.67;6.47;;;;;;;4.23;100.00;95495.63;5093589;28;20215;-54
2022/12/18 05:00:00;;;;;;;13.93;7.13;;;;;;;4.14;100.00;95527.06;5093817;28;20212;-55
2022/12/18 05:02:26;;;;;;;11.07;6.80;;;;;;;4.14;100.00;95531.28;5093326;28;20194;-56
2022/12/18 05:04:52;;;;;;;11.40;6.70;;;;;;;4.09;100.00;95520.59;5093537;28;20701;-55
2022/12/18 05:07:18;;;;;;;13.10;6.90;;;;;;;4.12;100.00;95512.94;5093625;28;20268;-53
2022/12/18 05:09:43;;;;;;;10.43;6.60;;;;;;;4.03;100.00;95535.97;5093493;28;20250;-53
2022/12/18 05:12:08;;;;;;;12.30;7.17;;;;;;;4.05;100.00;95526.66;5093377;28;20665;-55
2022/12/18 05:14:34;;;;;;;12.20;6.63;;;;;;;4.03;100.00;95549.38;5093330;28;20212;-54
2022/12/18 05:16:59;;;;;;;11.43;7.27;;;;;;;3.85;100.00;95521.72;5093188;28;20215;-54
2022/12/18 05:19:25;;;;;;;12.33;6.80;;;;;;;3.94;100.00;95523.84;5092995;28;20211;-56
2022/12/18 05:21:50;;;;;;;13.73;8.00;;;;;;;3.97;100.00;95519.47;5093203;28;20189;-53
2022/12/18 05:24:15;;;;;;;8.97;6.47;;;;;;;3.96;100.00;95544.69;5093278;28;20215;-55
2022/12/18 05:26:41;;;;;;;13.80;6.77;;;;;;;3.91;100.00;95537.34;5093233;28;20200;-54
2022/12/18 05:29:06;;;;;;;13.53;7.10;;;;;;;4.00;100.00;95543.69;5093203;28;20180;-56
2022/12/18 05:31:32;;;;;;;13.10;7.00;;;;;;;3.91;100.00;95565.03;5093008;28;20269;-55
2022/12/18 05:33:57;;;;;;;12.43;6.60;;;;;;;3.79;100.00;95540.41;5092882;28;20191;-53
2022/12/18 05:36:23;;;;;;;13.20;7.40;;;;;;;3.80;100.00;95547.06;5092983;28;20215;-53
2022/12/18 05:38:48;;;;;;;11.37;6.93;;;;;;;3.74;100.00;95547.31;5074742;28;20188;-54
2022/12/18 05:41:13;;;;;;;12.53;7.73;;;;;;;3.79;100.00;95557.19;5092968;28;20216;-57
2022/12/18 05:43:40;;;;;;;11.40;7.33;;;;;;;3.77;100.00;95564.00;5092916;28;20194;-52
2022/12/18 05:46:07;;;;;;;10.63;6.90;;;;;;;3.79;100.00;95569.75;5093111;28;20219;-54
2022/12/18 05:48:32;;;;;;;16.20;8.03;;;;;;;3.86;100.00;95569.41;5092614;28;20704;-55
2022/12/18 05:51:07;;;;;;;11.47;7.30;;;;;;;3.79;100.00;95567.25;5092413;28;20200;-54
2022/12/18 05:53:33;;;;;;;13.27;7.23;;;;;;;3.79;100.00;95568.06;5092564;28;20190;-54
2022/12/18 05:56:04;;;;;;;12.23;7.00;;;;;;;3.72;100.00;95573.41;5092709;28;20220;-55
2022/12/18 05:58:30;;;;;;;15.70;8.70;;;;;;;3.79;100.00;95559.72;5092513;28;20194;-53
2022/12/18 06:00:56;;;;;;;14.00;8.07;;;;;;;3.59;100.00;95572.31;5092615;28;20212;-52
2022/12/18 06:03:21;;;;;;;15.83;8.90;;;;;;;3.64;100.00;95588.00;5092329;28;20214;-51
2022/12/18 06:05:47;;;;;;;19.43;9.33;;;;;;;3.61;100.00;95585.66;5092393;28;20617;-53
2022/12/18 06:08:13;;;;;;;12.10;7.90;;;;;;;3.41;100.00;95557.13;5092516;28;20187;-55
2022/12/18 06:10:39;;;;;;;14.80;9.03;;;;;;;3.61;100.00;95580.63;5092920;28;20223;-55
2022/12/18 06:13:05;;;;;;;12.97;7.93;;;;;;;3.55;100.00;95588.41;5092190;28;20210;-55
2022/12/18 06:15:31;;;;;;;14.60;7.70;;;;;;;3.57;100.00;95596.72;5092331;28;20669;-55
2022/12/18 06:17:56;;;;;;;16.73;8.20;;;;;;;3.56;100.00;95587.53;5092058;28;20235;-54
2022/12/18 06:20:22;;;;;;;13.00;8.23;;;;;;;3.80;100.00;95569.69;5092051;28;20219;-52
2022/12/18 06:22:47;;;;;;;15.57;8.20;;;;;;;3.65;100.00;95607.25;5073934;28;20214;-53
2022/12/18 06:25:13;;;;;;;12.37;7.47;;;;;;;3.73;100.00;95605.22;5092224;28;20208;-54
2022/12/18 06:27:38;;;;;;;12.33;7.43;;;;;;;3.63;100.00;95609.84;5092322;28;20199;-54
2022/12/18 06:30:04;;;;;;;18.20;8.93;;;;;;;3.72;100.00;95596.88;5091984;28;20756;-56
2022/12/18 06:32:30;;;;;;;15.33;8.37;;;;;;;3.78;100.00;95605.84;5091946;28;20301;-54
2022/12/18 06:34:55;;;;;;;15.80;9.40;;;;;;;3.74;100.00;95602.63;5092164;28;20287;-52
2022/12/18 06:37:24;;;;;;;13.60;7.90;;;;;;;3.76;100.00;95618.47;5091929;28;20232;-54
2022/12/18 06:39:50;;;;;;;14.70;9.17;;;;;;;3.89;100.00;95638.91;5092127;28;20355;-55
2022/12/18 06:42:15;;;;;;;14.87;9.07;;;;;;;3.91;100.00;95649.69;5092215;28;20721;-52
2022/12/18 06:44:41;;;;;;;16.17;9.10;;;;;;;3.81;100.00;95648.47;5091820;28;20219;-54
2022/12/18 06:47:06;;;;;;;13.70;8.23;;;;;;;3.78;100.00;95628.47;5073651;28;20278;-56
2022/12/18 06:49:31;;;;;;;15.17;8.93;;;;;;;3.80;100.00;95641.78;5073521;28;20215;-53
2022/12/18 06:51:57;;;;;;;15.60;8.90;;;;;;;3.71;100.00;95657.28;5091759;28;20210;-52
2022/12/18 06:54:22;;;;;;;15.10;9.20;;;;;;;3.76;100.00;95660.41;5091834;28;20215;-55
2022/12/18 06:56:48;;;;;;;14.27;7.83;;;;;;;3.74;100.00;95654.63;5073652;28;20337;-54
2022/12/18 06:59:14;;;;;;;15.63;8.73;;;;;;;3.76;100.00;95678.81;5091572;28;20587;-55
2022/12/18 07:01:40;;;;;;;15.47;9.07;;;;;;;3.76;100.00;95673.78;5072549;28;20275;-52
2022/12/18 07:04:05;;;;;;;16.83;9.10;;;;;;;3.78;100.00;95689.63;5091002;28;20545;-54
2022/12/18 07:06:30;;;;;;;15.13;8.33;;;;;;;3.78;100.00;95698.88;5091489;28;20184;-54
2022/12/18 07:08:56;;;;;;;12.43;7.53;;;;;;;3.75;100.00;95709.06;5091517;28;20196;-53
2022/12/18 07:11:22;;;;;;;16.73;8.97;;;;;;;3.67;100.00;95706.06;5091555;28;20211;-53
2022/12/18 07:13:47;;;;;;;17.00;8.97;;;;;;;3.72;100.00;95692.41;5091491;28;20273;-54
2022/12/18 07:16:16;;;;;;;17.17;8.50;;;;;;;3.82;100.00;95705.41;5091193;28;20227;-53
2022/12/18 07:18:42;;;;;;;14.43;8.43;;;;;;;3.87;100.00;95701.00;5073236;28;20195;-52
2022/12/18 07:21:09;;;;;;;16.13;8.80;;;;;;;3.92;100.00;95707.47;5091192;28;20276;-55
2022/12/18 07:23:35;;;;;;;16.57;9.63;;;;;;;3.93;100.00;95703.28;5091289;28;20196;-56
2022/12/18 07:26:06;;;;;;;14.20;8.70;;;;;;;3.93;100.00;95706.59;5091452;28;20243;-55
2022/12/18 07:28:32;;;;;;;16.63;10.03;;;;;;;3.79;100.00;95685.44;5091301;28;20203;-53
2022/12/18 07:31:02;;;;;;;14.40;7.60;;;;;;;3.80;100.00;95682.84;5091383;28;20689;-52
2022/12/18 07:33:28;;;;;;;14.97;9.07;;;;;;;3.78;100.00;95682.09;5091084;28;20194;-54
2022/12/18 07:35:54;;;;;;;17.40;10.40;;;;;;;3.89;100.00;95710.13;5091347;28;20212;-53
2022/12/18 07:38:19;;;;;;;16.63;9.87;;;;;;;3.91;100.00;95710.88;5072815;28;20195;-55
2022/12/18 07:40:44;;;;;;;15.23;9.70;;;;;;;3.84;100.00;95712.00;5091362;28;20219;-54
2022/12/18 07:43:10;;;;;;;15.10;9.57;;;;;;;3.86;100.00;95719.47;5090850;28;20195;-56
2022/12/18 07:45:35;;;;;;;16.50;10.40;;;;;;;3.78;100.00;95712.25;5091211;28;20215;-55
2022/12/18 07:48:00;;;;;;;14.53;10.03;;;;;;;3.76;100.00;95703.13;5090818;28;20180;-55
2022/12/18 07:50:26;;;;;;;17.60;9.53;;;;;;;3.75;100.00;95706.56;5090979;28;20265;-55
2022/12/18 07:52:51;;;;;;;16.90;10.73;;;;;;;3.80;100.00;95717.22;5090871;28;20535;-53
2022/12/18 07:55:16;;;;;;;19.00;9.70;;;;;;;3.87;100.00;95718.63;5090268;28;20212;-52
2022/12/18 07:57:42;;;;;;;20.03;9.93;;;;;;;3.92;100.00;95712.50;5090792;28;20651;-54
2022/12/18 08:00:08;;;;;;;16.57;10.77;;;;;;;3.79;100.00;95725.66;5090664;28;20276;-54
2022/12/18 08:02:40;;;;;;;16.30;9.83;;;;;;;3.58;100.00;95726.53;5090788;28;20274;-55
2022/12/18 08:05:05;;;;;;;20.80;11.80;;;;;;;3.50;100.00;95701.69;5091010;28;20583;-54
2022/12/18 08:07:31;;;;;;;18.73;11.23;;;;;;;3.61;100.00;95709.63;5090693;28;20357;-52
2022/12/18 08:09:56;;;;;;;19.73;11.83;;;;;;;3.62;100.00;95725.53;5090815;28;20215;-52
2022/12/18 08:12:22;;;;;;;26.33;11.20;;;;;;;3.50;100.00;95723.50;5090600;28;20184;-55
2022/12/18 08:14:48;;;;;;;20.97;11.63;;;;;;;3.50;100.00;95715.97;5093253;28;20210;-53
2022/12/18 08:17:13;;;;;;;18.23;11.07;;;;;;;3.46;100.00;95721.97;5093932;28;20298;-55
2022/12/18 08:19:39;;;;;;;18.50;10.90;;;;;;;3.52;100.00;95715.03;5094069;28;20212;-55
2022/12/18 08:22:04;;;;;;;20.77;12.23;;;;;;;3.41;100.00;95720.47;5094050;28;20176;-55
2022/12/18 08:24:30;;;;;;;20.00;11.50;;;;;;;3.45;100.00;95740.47;5094031;28;20212;-56
2022/12/18 08:26:57;;;;;;;22.70;12.07;;;;;;;3.36;100.00;95744.97;5093995;28;20180;-56
2022/12/18 08:29:22;;;;;;;21.37;12.43;;;;;;;3.33;100.00;95755.13;5091784;28;20208;-52
2022/12/18 08:31:49;;;;;;;19.33;10.57;;;;;;;3.33;100.00;95756.84;5091571;28;20190;-53
2022/12/18 08:34:14;;;;;;;20.43;11.63;;;;;;;3.43;100.00;95758.13;5093717;28;20234;-54
2022/12/18 08:36:40;;;;;;;23.13;11.57;;;;;;;3.48;100.00;95766.28;5093865;28;20211;-57
2022/12/18 08:39:05;;;;;;;49.50;21.77;;;;;;;5.39;100.00;95690.75;5093961;28;20267;-55
2022/12/18 08:41:31;;;;;;;19.90;11.70;;;;;;;4.97;100.00;95711.19;5093715;28;20649;-54
2022/12/18 08:46:43;;;;;;;25.87;10.43;;;;;;;4.10;100.00;95804.03;5093800;28;20207;-53
2022/12/18 08:49:10;;;;;;;20.70;11.20;;;;;;;3.92;100.00;95779.63;5093459;28;20219;-54
2022/12/18 08:51:35;;;;;;;18.50;10.37;;;;;;;3.72;100.00;95765.31;5093744;28;20661;-56
2022/12/18 08:54:01;;;;;;;21.17;11.70;;;;;;;3.71;100.00;95767.91;5075227;28;20186;-54
2022/12/18 08:56:34;;;;;;;18.70;11.20;;;;;;;3.70;100.00;95759.53;5093145;28;20218;-54
2022/12/18 08:58:59;;;;;;;23.77;10.73;;;;;;;3.65;100.00;95768.97;5093171;28;20269;-54
2022/12/18 09:01:24;;;;;;;19.17;10.67;;;;;;;3.71;100.00;95770.41;5093307;28;20809;-54
2022/12/18 09:03:50;;;;;;;20.73;11.63;;;;;;;3.76;100.00;95781.91;5093241;28;20188;-53
2022/12/18 09:06:18;;;;;;;22.43;10.53;;;;;;;3.67;100.00;95794.03;5093412;28;20196;-54
2022/12/18 09:08:44;;;;;;;17.43;9.97;;;;;;;3.73;100.00;95788.78;5092635;28;20211;-53
2022/12/18 09:11:24;;;;;;;21.67;11.80;;;;;;;3.69;100.00;95804.84;5093065;28;20204;-56
2022/12/18 09:13:50;;;;;;;18.97;10.13;;;;;;;3.73;100.00;95812.22;5075172;28;20180;-54
2022/12/18 09:16:16;;;;;;;17.93;10.00;;;;;;;3.76;100.00;95806.22;5093412;28;20200;-52
2022/12/18 09:18:42;;;;;;;19.77;10.63;;;;;;;3.76;100.00;95806.22;5093143;28;20199;-55
2022/12/18 09:21:19;;;;;;;19.67;11.13;;;;;;;3.91;100.00;95808.16;5093253;28;20280;-54
2022/12/18 09:23:50;;;;;;;20.33;11.27;;;;;;;3.93;100.00;95808.91;5093151;28;20683;-55
2022/12/18 09:26:16;;;;;;;16.23;9.57;;;;;;;3.84;100.00;95819.31;5091823;28;20199;-56
2022/12/18 09:28:42;;;;;;;17.27;10.73;;;;;;;3.81;100.00;95781.75;5093003;28;20188;-55
2022/12/18 09:31:10;;;;;;;18.50;10.53;;;;;;;3.87;100.00;95816.69;5092605;28;20228;-55
2022/12/18 09:33:36;;;;;;;18.20;10.50;;;;;;;3.94;100.00;95800.50;5074576;28;20192;-56
2022/12/18 09:36:03;;;;;;;19.70;10.57;;;;;;;4.06;100.00;95812.56;5092818;28;20223;-55
2022/12/18 09:38:29;;;;;;;20.23;10.90;;;;;;;4.09;100.00;95820.81;5092425;28;20646;-55
2022/12/18 09:41:00;;;;;;;17.83;10.27;;;;;;;4.20;100.00;95827.94;5092847;28;20218;-55
2022/12/18 09:43:42;;;;;;;16.77;9.67;;;;;;;4.25;100.00;95864.59;5092707;28;20201;-55
2022/12/18 09:46:15;;;;;;;22.67;10.83;;;;;;;4.26;100.00;95883.84;5074396;28;20295;-54
2022/12/18 09:48:44;;;;;;;15.00;9.37;;;;;;;3.94;100.00;95840.75;5092769;28;20190;-54
2022/12/18 09:51:21;;;;;;;16.43;10.03;;;;;;;3.95;100.00;95847.41;5091778;28;20576;-56
2022/12/18 09:53:58;;;;;;;18.70;10.20;;;;;;;3.97;100.00;95820.47;5090224;28;20176;-52
2022/12/18 09:56:28;;;;;;;18.60;9.73;;;;;;;3.98;100.00;95845.56;5092543;28;20216;-54
2022/12/18 09:58:58;;;;;;;18.57;9.83;;;;;;;4.14;100.00;95853.34;5092604;28;20270;-55
2022/12/18 10:01:24;;;;;;;15.23;9.30;;;;;;;4.41;100.00;95844.63;5092631;28;20223;-53
2022/12/18 10:03:52;;;;;;;18.63;9.20;;;;;;;4.48;100.00;95890.53;5092020;28;20195;-56
2022/12/18 10:06:27;;;;;;;15.87;9.63;;;;;;;4.25;100.00;95866.28;5092626;28;20200;-54
2022/12/18 10:08:53;;;;;;;17.87;8.83;;;;;;;4.28;100.00;95876.25;5092129;28;20184;-54
2022/12/18 10:11:27;;;;;;;19.20;9.97;;;;;;;4.07;100.00;95860.31;5092270;28;20229;-55
2022/12/18 10:14:10;;;;;;;16.63;9.27;;;;;;;4.09;100.00;95883.72;5092284;28;20620;-54
2022/12/18 10:16:50;;;;;;;16.63;9.50;;;;;;;4.01;100.00;95863.06;5092286;28;20196;-54
2022/12/18 10:19:28;;;;;;;18.53;10.33;;;;;;;4.13;100.00;95857.53;5092088;28;20205;-55
2022/12/18 10:22:12;;;;;;;21.70;10.87;;;;;;;4.20;100.00;95832.97;5091798;28;20694;-56
2022/12/18 10:24:54;;;;;;;18.07;10.27;;;;;;;4.26;100.00;95863.69;5092269;28;20661;-53
2022/12/18 10:27:26;;;;;;;17.07;9.87;;;;;;;4.10;100.00;95865.19;5092377;28;20176;-52
2022/12/18 10:29:52;;;;;;;18.77;9.60;;;;;;;4.12;100.00;95876.03;5092259;28;20231;-56
2022/12/18 10:32:27;;;;;;;15.17;9.70;;;;;;;4.15;100.00;95875.09;5094106;28;20201;-54
2022/12/18 10:34:55;;;;;;;18.07;10.37;;;;;;;4.00;100.00;95858.91;5092030;28;20207;-56
2022/12/18 10:37:23;;;;;;;17.20;9.23;;;;;;;4.10;100.00;95872.75;5091335;28;20204;-55
2022/12/18 10:40:12;;;;;;;16.53;9.63;;;;;;;4.08;100.00;95854.38;5091849;28;20209;-54
2022/12/18 10:42:38;;;;;;;18.03;10.60;;;;;;;4.12;100.00;95847.56;5092321;28;20220;-53
2022/12/18 10:45:10;;;;;;;18.70;10.40;;;;;;;4.16;100.00;95836.47;5091866;28;20216;-52
2022/12/18 10:47:36;;;;;;;17.80;10.43;;;;;;;4.23;100.00;95847.91;5091810;28;20184;-54
2022/12/18 10:50:03;;;;;;;19.10;9.80;;;;;;;4.34;100.00;95835.72;5091448;28;20208;-55
2022/12/18 10:52:28;;;;;;;17.37;9.53;;;;;;;4.31;100.00;95840.88;5091559;28;20184;-55
2022/12/18 10:55:03;;;;;;;18.87;10.40;;;;;;;4.20;100.00;95822.91;5091742;28;20289;-54
2022/12/18 10:57:28;;;;;;;18.97;9.67;;;;;;;4.21;100.00;95799.34;5073365;28;20211;-56
2022/12/18 10:59:56;;;;;;;18.53;10.73;;;;;;;4.30;100.00;95809.03;5091532;28;20224;-56
2022/12/18 11:02:34;;;;;;;23.37;10.73;;;;;;;4.36;100.00;95823.06;5091577;28;20268;-53
2022/12/18 11:05:00;;;;;;;19.20;10.43;;;;;;;4.47;100.00;95825.94;5091773;28;20216;-55
2022/12/18 11:07:56;;;;;;;22.67;10.77;;;;;;;4.46;100.00;95845.28;5091407;28;20215;-55
2022/12/18 11:10:26;;;;;;;19.57;10.80;;;;;;;4.55;100.00;95859.16;5091650;28;20223;-56
2022/12/18 11:12:52;;;;;;;19.03;10.27;;;;;;;4.45;100.00;95863.75;5091443;28;20303;-56
2022/12/18 11:15:30;;;;;;;20.60;10.63;;;;;;;4.50;100.00;95858.53;5091427;28;20239;-56
2022/12/18 11:17:56;;;;;;;23.60;12.47;;;;;;;4.67;100.00;95861.97;5091165;28;20203;-55
2022/12/18 11:20:34;;;;;;;19.40;10.87;;;;;;;4.93;100.00;95903.69;5091254;28;20263;-54
2022/12/18 11:23:02;;;;;;;21.40;9.70;;;;;;;4.68;100.00;95950.94;5091278;28;20189;-53
2022/12/18 11:25:28;;;;;;;16.67;9.40;;;;;;;4.51;100.00;95931.50;5091347;28;20209;-53
2022/12/18 11:27:57;;;;;;;17.17;9.10;;;;;;;4.51;100.00;95944.06;5091057;28;20194;-53
2022/12/18 11:30:33;;;;;;;17.27;9.30;;;;;;;4.66;100.00;95938.44;5091268;28;20247;-55
2022/12/18 11:33:11;;;;;;;19.43;10.33;;;;;;;4.48;100.00;95911.50;5072820;28;20714;-57
2022/12/18 11:35:42;;;;;;;17.73;9.67;;;;;;;4.65;100.00;95920.84;5091352;28;20673;-54
2022/12/18 11:38:19;;;;;;;16.73;9.40;;;;;;;4.62;100.00;95913.44;5090935;28;20216;-55
2022/12/18 11:40:51;;;;;;;15.57;8.90;;;;;;;4.59;100.00;95932.00;5090894;28;20269;-54